Time;durP1;ratioP1;P1;durP2;ratioP2;P2;SDS_P1;SDS_P2;PMS_P1;PMS_P2;Temp;Humidity;BMP_temperature;BMP_pressure;BME280_temperature;BME280_humidity;BME280_pressure;Samples;Min_cycle;Max_cycle;Signal;HPM_P1;HPM_P2
2024/01/19 00:01:28;;;;;;;15.60;13.87;;;-3.70;99.90;;;;;;5094273;28;20591;-63
2024/01/19 00:03:54;;;;;;;20.27;14.33;;;-3.70;99.90;;;;;;5096204;28;20184;-63
2024/01/19 00:06:19;;;;;;;20.77;15.50;;;-3.80;99.90;;;;;;5102331;28;20188;-62
2024/01/19 00:08:45;;;;;;;15.63;13.53;;;-3.80;99.90;;;;;;5103077;28;20559;-63
2024/01/19 00:11:15;;;;;;;18.27;16.37;;;-3.70;99.90;;;;;;5106939;28;20200;-61
2024/01/19 00:13:41;;;;;;;20.40;16.30;;;-3.70;99.90;;;;;;5113666;28;20177;-61
2024/01/19 00:16:07;;;;;;;17.53;15.80;;;-3.60;99.90;;;;;;5104344;28;20212;-62
2024/01/19 00:18:33;;;;;;;18.27;14.53;;;-3.60;99.90;;;;;;5111884;28;20798;-63
2024/01/19 00:21:00;;;;;;;19.27;14.73;;;-3.50;99.90;;;;;;5106192;28;20239;-62
2024/01/19 00:23:25;;;;;;;16.50;14.90;;;-3.60;99.90;;;;;;5114393;28;20176;-62
2024/01/19 00:25:51;;;;;;;14.87;13.43;;;-3.80;99.90;;;;;;5113359;27;20185;-62
2024/01/19 00:28:17;;;;;;;15.67;14.17;;;-4.10;99.90;;;;;;5109356;28;20189;-62
2024/01/19 00:30:43;;;;;;;14.23;13.00;;;-4.30;99.90;;;;;;5095063;28;20587;-61
2024/01/19 00:33:09;;;;;;;17.70;13.60;;;-4.40;99.90;;;;;;5103179;28;20180;-62
2024/01/19 00:35:35;;;;;;;14.67;13.27;;;-4.50;99.90;;;;;;5112555;28;20184;-62
2024/01/19 00:38:01;;;;;;;15.13;13.57;;;-4.50;99.90;;;;;;5112217;28;20692;-63
2024/01/19 00:40:27;;;;;;;15.13;13.53;;;-4.40;99.90;;;;;;5097393;28;20664;-62
2024/01/19 00:42:53;;;;;;;14.07;12.60;;;-4.50;99.90;;;;;;5103868;28;20554;-62
2024/01/19 00:45:18;;;;;;;22.80;15.73;;;-4.60;99.90;;;;;;5102821;28;20204;-61
2024/01/19 00:47:44;;;;;;;21.10;17.23;;;-4.50;99.90;;;;;;5112334;28;20581;-60
2024/01/19 00:50:10;;;;;;;34.33;18.73;;;-4.30;99.90;;;;;;5109139;28;20184;-61
2024/01/19 00:52:36;;;;;;;24.90;18.07;;;-4.10;99.90;;;;;;5099424;28;20179;-62
2024/01/19 00:55:02;;;;;;;32.40;19.30;;;-3.90;99.90;;;;;;5101421;28;20268;-62
2024/01/19 00:57:28;;;;;;;28.87;21.37;;;-3.70;99.90;;;;;;5102505;28;20313;-61
2024/01/19 00:59:55;;;;;;;30.13;20.50;;;-3.60;99.90;;;;;;5103541;28;20206;-62
2024/01/19 01:02:21;;;;;;;26.80;19.60;;;-3.50;99.90;;;;;;5101579;28;20614;-61
2024/01/19 01:04:46;;;;;;;23.57;18.67;;;-3.60;99.90;;;;;;5105070;28;20177;-62
2024/01/19 01:07:13;;;;;;;23.97;18.37;;;-3.80;99.90;;;;;;5104972;28;20626;-62
2024/01/19 01:09:38;;;;;;;26.87;18.23;;;-3.90;99.90;;;;;;5097647;28;20176;-63
2024/01/19 01:12:05;;;;;;;23.27;18.20;;;-4.10;99.90;;;;;;5107753;28;20692;-62
2024/01/19 01:14:31;;;;;;;20.40;17.00;;;-4.10;99.90;;;;;;5102626;28;20177;-62
2024/01/19 01:16:56;;;;;;;27.33;20.97;;;-4.10;99.90;;;;;;5099990;28;20197;-62
2024/01/19 01:19:22;;;;;;;32.10;20.33;;;-4.00;99.90;;;;;;5096516;28;20234;-62
2024/01/19 01:21:48;;;;;;;36.47;22.13;;;-3.90;99.90;;;;;;5096372;28;20181;-60
2024/01/19 01:24:14;;;;;;;33.90;21.27;;;-3.70;99.90;;;;;;5097066;28;20181;-62
2024/01/19 01:26:39;;;;;;;38.90;23.70;;;-3.60;99.90;;;;;;5112142;28;20200;-62
2024/01/19 01:29:05;;;;;;;39.00;24.20;;;-3.50;99.90;;;;;;5103103;28;20192;-61
2024/01/19 01:31:31;;;;;;;35.43;22.27;;;-3.50;99.90;;;;;;5109039;28;20181;-62
2024/01/19 01:33:56;;;;;;;29.20;22.33;;;-3.50;99.90;;;;;;5112346;28;20588;-62
2024/01/19 01:36:22;;;;;;;37.40;23.10;;;-3.60;99.90;;;;;;5114587;28;20526;-62
2024/01/19 01:38:49;;;;;;;35.83;22.27;;;-3.70;99.90;;;;;;5101814;27;20293;-61
2024/01/19 01:41:15;;;;;;;43.17;23.03;;;-3.70;99.90;;;;;;5094880;28;20207;-61
2024/01/19 01:43:40;;;;;;;31.37;21.80;;;-3.80;99.90;;;;;;5106726;28;20721;-60
2024/01/19 01:46:06;;;;;;;43.53;24.87;;;-3.80;99.90;;;;;;5097432;28;20192;-62
2024/01/19 01:48:32;;;;;;;28.80;21.80;;;-3.80;99.90;;;;;;5105795;28;20288;-62
2024/01/19 01:50:58;;;;;;;37.70;23.60;;;-3.80;99.90;;;;;;5112503;28;20228;-62
2024/01/19 01:53:24;;;;;;;45.33;24.70;;;-3.70;99.90;;;;;;5098017;28;20188;-61
2024/01/19 01:55:51;;;;;;;39.90;24.10;;;-3.70;99.90;;;;;;5106605;28;20217;-62
2024/01/19 01:58:18;;;;;;;41.10;24.73;;;-3.60;99.90;;;;;;5109998;28;20193;-62
2024/01/19 02:00:45;;;;;;;39.30;24.17;;;-3.60;99.90;;;;;;5101299;28;20208;-62
2024/01/19 02:03:11;;;;;;;38.47;23.20;;;-3.50;99.90;;;;;;5111293;28;20181;-62
2024/01/19 02:05:37;;;;;;;42.37;25.77;;;-3.50;99.90;;;;;;5097089;28;20184;-61
2024/01/19 02:08:03;;;;;;;44.30;24.63;;;-3.50;99.90;;;;;;5111957;28;20205;-62
2024/01/19 02:10:29;;;;;;;42.50;26.03;;;-3.50;99.90;;;;;;5098797;28;20519;-61
2024/01/19 02:12:55;;;;;;;40.37;24.07;;;-3.50;99.90;;;;;;5105927;28;20183;-61
2024/01/19 02:15:23;;;;;;;48.00;24.37;;;-3.40;99.90;;;;;;5106718;28;20186;-62
2024/01/19 02:17:50;;;;;;;36.23;24.13;;;-3.40;99.90;;;;;;5102011;28;20228;-62
2024/01/19 02:20:17;;;;;;;35.57;22.90;;;-3.30;99.90;;;;;;5095401;28;20211;-60
2024/01/19 02:22:43;;;;;;;41.87;22.73;;;-3.30;99.90;;;;;;5097774;28;20177;-62
2024/01/19 02:25:10;;;;;;;41.43;22.73;;;-3.20;99.90;;;;;;5097317;28;20672;-62
2024/01/19 02:27:36;;;;;;;43.43;25.20;;;-3.30;99.90;;;;;;5095962;28;20197;-62
2024/01/19 02:30:02;;;;;;;45.60;24.67;;;-3.30;99.90;;;;;;5110799;28;20660;-61
2024/01/19 02:32:28;;;;;;;51.57;24.80;;;-3.30;99.90;;;;;;5108336;28;20260;-62
2024/01/19 02:34:54;;;;;;;45.87;25.00;;;-3.30;99.90;;;;;;5095375;28;20275;-62
2024/01/19 02:37:20;;;;;;;40.43;23.73;;;-3.40;99.90;;;;;;5099754;27;20204;-61
2024/01/19 02:39:46;;;;;;;40.90;23.60;;;-3.50;99.90;;;;;;5099617;28;20570;-62
2024/01/19 02:42:12;;;;;;;47.23;24.67;;;-3.60;99.90;;;;;;5105997;28;20261;-62
2024/01/19 02:44:38;;;;;;;40.07;25.07;;;-3.60;99.90;;;;;;5098378;28;20181;-62
2024/01/19 02:47:04;;;;;;;36.80;23.63;;;-3.60;99.90;;;;;;5111171;28;20225;-60
2024/01/19 02:49:30;;;;;;;49.50;24.70;;;-3.50;99.90;;;;;;5095303;28;20243;-62
2024/01/19 02:51:55;;;;;;;40.33;24.97;;;-3.60;99.90;;;;;;5110239;28;20676;-62
2024/01/19 02:54:21;;;;;;;42.60;23.07;;;-3.60;99.90;;;;;;5112461;28;20181;-60
2024/01/19 02:56:47;;;;;;;44.30;25.20;;;-3.60;99.90;;;;;;5094628;28;20276;-62
2024/01/19 02:59:12;;;;;;;39.87;24.33;;;-3.50;99.90;;;;;;5096883;28;20180;-62
2024/01/19 03:01:38;;;;;;;50.07;25.87;;;-3.50;99.90;;;;;;5105115;28;20184;-62
2024/01/19 03:04:05;;;;;;;37.03;22.80;;;-3.50;99.90;;;;;;5099420;28;20290;-62
2024/01/19 03:06:30;;;;;;;42.57;24.73;;;-3.40;99.90;;;;;;5107895;28;20197;-62
2024/01/19 03:08:56;;;;;;;38.00;22.63;;;-3.30;99.90;;;;;;5113249;28;20180;-61
2024/01/19 03:11:22;;;;;;;35.67;23.87;;;-3.20;99.90;;;;;;5108504;28;20188;-62
2024/01/19 03:13:50;;;;;;;42.87;22.60;;;-3.20;99.90;;;;;;5103585;28;20169;-62
2024/01/19 03:16:16;;;;;;;46.27;23.97;;;-3.20;99.90;;;;;;5102448;28;20689;-60
2024/01/19 03:18:42;;;;;;;41.27;23.13;;;-3.20;99.90;;;;;;5111423;28;20232;-62
2024/01/19 03:21:08;;;;;;;42.83;23.53;;;-3.10;99.90;;;;;;5104281;28;20192;-62
2024/01/19 03:23:34;;;;;;;45.87;25.07;;;-3.00;99.90;;;;;;5093744;28;20193;-61
2024/01/19 03:26:00;;;;;;;38.17;22.53;;;-2.90;99.90;;;;;;5106156;28;20169;-61
2024/01/19 03:28:26;;;;;;;43.80;24.57;;;-2.90;99.90;;;;;;5096620;28;20215;-62
2024/01/19 03:30:52;;;;;;;35.80;22.93;;;-2.90;99.90;;;;;;5102748;28;20214;-61
2024/01/19 03:33:18;;;;;;;37.57;22.63;;;-2.90;99.90;;;;;;5110891;28;20172;-62
2024/01/19 03:35:43;;;;;;;40.20;23.07;;;-2.90;99.90;;;;;;5113335;28;20178;-62
2024/01/19 03:38:09;;;;;;;42.87;23.67;;;-2.90;99.90;;;;;;5101770;28;20201;-60
2024/01/19 03:40:35;;;;;;;38.57;23.50;;;-2.90;99.90;;;;;;5093035;28;20272;-62
2024/01/19 03:43:02;;;;;;;38.70;23.13;;;-2.80;99.90;;;;;;5096834;28;20175;-62
2024/01/19 03:45:28;;;;;;;35.63;22.60;;;-2.90;99.90;;;;;;5108614;28;20195;-62
2024/01/19 03:47:53;;;;;;;39.13;23.87;;;-2.90;99.90;;;;;;5106403;27;20228;-62
2024/01/19 03:50:19;;;;;;;38.50;23.63;;;-2.90;99.90;;;;;;5098941;28;20574;-62
2024/01/19 03:52:45;;;;;;;35.30;23.33;;;-3.00;99.90;;;;;;5104295;28;20183;-62
2024/01/19 03:55:11;;;;;;;50.90;25.27;;;-3.00;99.90;;;;;;5109258;28;20187;-62
2024/01/19 03:57:36;;;;;;;46.80;25.27;;;-3.00;99.90;;;;;;5114082;28;20234;-62
2024/01/19 04:00:05;;;;;;;40.70;23.77;;;-3.00;99.90;;;;;;5107679;28;20319;-60
2024/01/19 04:02:31;;;;;;;41.80;24.77;;;-2.90;99.90;;;;;;5115355;28;20183;-62
2024/01/19 04:04:56;;;;;;;37.67;24.20;;;-2.90;99.90;;;;;;5103268;27;20260;-62
2024/01/19 04:07:22;;;;;;;43.57;25.03;;;-2.80;99.90;;;;;;5106789;28;20200;-61
2024/01/19 04:09:48;;;;;;;37.73;23.97;;;-2.80;99.90;;;;;;5112176;28;20188;-62
2024/01/19 04:12:16;;;;;;;43.37;25.47;;;-2.70;99.90;;;;;;5104817;28;20215;-59
2024/01/19 04:14:44;;;;;;;43.87;25.90;;;-2.70;99.90;;;;;;5108315;28;20669;-62
2024/01/19 04:17:10;;;;;;;43.30;26.17;;;-2.50;99.90;;;;;;5111615;28;20706;-62
2024/01/19 04:19:37;;;;;;;35.73;24.80;;;-2.50;99.90;;;;;;5116651;28;20196;-61
2024/01/19 04:22:04;;;;;;;51.20;25.20;;;-2.40;99.90;;;;;;5107329;28;20230;-62
2024/01/19 04:24:29;;;;;;;44.60;27.73;;;-2.40;99.90;;;;;;5102251;28;20267;-61
2024/01/19 04:26:55;;;;;;;40.40;26.43;;;-2.40;99.90;;;;;;5103120;28;20275;-62
2024/01/19 04:29:21;;;;;;;42.37;26.57;;;-2.40;99.90;;;;;;5100105;28;20181;-62
2024/01/19 04:31:47;;;;;;;42.27;26.67;;;-2.40;99.90;;;;;;5113871;28;20183;-62
2024/01/19 04:34:13;;;;;;;49.50;27.50;;;-2.40;99.90;;;;;;5106363;28;20173;-61
2024/01/19 04:36:38;;;;;;;47.03;27.13;;;-2.50;99.90;;;;;;5103321;28;20197;-60
2024/01/19 04:39:04;;;;;;;46.23;27.80;;;-2.60;99.90;;;;;;5097854;28;20618;-61
2024/01/19 04:41:31;;;;;;;45.87;25.80;;;-2.60;99.90;;;;;;5113736;28;20208;-62
2024/01/19 04:43:57;;;;;;;42.43;27.80;;;-2.60;99.90;;;;;;5103862;28;20230;-62
2024/01/19 04:46:22;;;;;;;50.50;27.57;;;-2.60;99.90;;;;;;5099241;28;20642;-61
2024/01/19 04:48:48;;;;;;;43.53;28.23;;;-2.60;99.90;;;;;;5096175;28;20661;-62
2024/01/19 04:51:14;;;;;;;47.87;28.43;;;-2.60;99.90;;;;;;5097237;28;20200;-61
2024/01/19 04:53:40;;;;;;;44.37;26.77;;;-2.50;99.90;;;;;;5110232;28;20233;-62
2024/01/19 04:56:06;;;;;;;48.37;29.17;;;-2.50;99.90;;;;;;5105175;28;20545;-62
2024/01/19 04:58:36;;;;;;;49.33;29.37;;;-2.50;99.90;;;;;;5097040;28;20204;-61
2024/01/19 05:01:02;;;;;;;52.97;28.50;;;-2.50;99.90;;;;;;5102567;28;20212;-60
2024/01/19 05:03:27;;;;;;;50.40;28.70;;;-2.40;99.90;;;;;;5108205;28;20177;-62
2024/01/19 05:05:53;;;;;;;57.30;30.73;;;-2.40;99.90;;;;;;5110943;28;20176;-62
2024/01/19 05:08:19;;;;;;;55.33;31.20;;;-2.40;99.90;;;;;;5108015;28;20661;-60
2024/01/19 05:10:44;;;;;;;50.27;29.03;;;-2.40;99.90;;;;;;5103622;28;20604;-62
2024/01/19 05:13:10;;;;;;;60.77;30.47;;;-2.30;99.90;;;;;;5100303;28;20180;-62
2024/01/19 05:15:37;;;;;;;56.03;29.50;;;-2.30;99.90;;;;;;5112352;28;20207;-62
2024/01/19 05:18:03;;;;;;;53.83;30.63;;;-2.20;99.90;;;;;;5103064;28;20208;-62
2024/01/19 05:20:29;;;;;;;57.07;29.40;;;-2.10;99.90;;;;;;5111976;28;20196;-62
2024/01/19 05:22:55;;;;;;;55.90;29.77;;;-2.10;99.90;;;;;;5102061;28;20699;-62
2024/01/19 05:25:21;;;;;;;53.03;31.73;;;-2.00;99.90;;;;;;5101048;28;20186;-61
2024/01/19 05:27:53;;;;;;;53.93;30.07;;;-2.00;99.90;;;;;;5112477;28;20211;-60
2024/01/19 05:30:19;;;;;;;52.20;29.50;;;-1.90;99.90;;;;;;5110844;28;20665;-61
2024/01/19 05:32:45;;;;;;;49.53;29.57;;;-1.90;99.90;;;;;;5114459;28;20245;-62
2024/01/19 05:35:11;;;;;;;55.60;30.80;;;-1.90;99.90;;;;;;5113717;28;20184;-61
2024/01/19 05:37:37;;;;;;;56.50;30.70;;;-1.90;99.90;;;;;;5100717;28;20208;-61
2024/01/19 05:40:04;;;;;;;57.10;31.90;;;-1.80;99.90;;;;;;5099188;28;20612;-61
2024/01/19 05:42:29;;;;;;;58.30;31.03;;;-1.80;99.90;;;;;;5108591;28;20182;-61
2024/01/19 05:44:55;;;;;;;57.43;31.17;;;-1.70;99.90;;;;;;5102351;28;20188;-61
2024/01/19 05:47:21;;;;;;;55.77;30.30;;;-1.70;99.90;;;;;;5107943;28;20207;-60
2024/01/19 05:49:47;;;;;;;60.87;30.43;;;-1.70;99.90;;;;;;5107156;28;20180;-61
2024/01/19 05:52:12;;;;;;;51.00;30.73;;;-1.70;99.90;;;;;;5100890;28;20208;-62
2024/01/19 05:54:39;;;;;;;60.73;29.80;;;-1.70;99.90;;;;;;5114330;28;20184;-61
2024/01/19 05:57:05;;;;;;;61.33;29.97;;;-1.60;99.90;;;;;;5109865;27;20196;-62
2024/01/19 05:59:32;;;;;;;56.33;29.70;;;-1.60;99.90;;;;;;5114069;27;20253;-60
2024/01/19 06:01:58;;;;;;;54.77;28.67;;;-1.50;99.90;;;;;;5101697;27;20664;-60
2024/01/19 06:04:24;;;;;;;61.37;28.60;;;-1.50;99.90;;;;;;5106545;28;20185;-61
2024/01/19 06:06:50;;;;;;;65.17;32.13;;;-1.50;99.90;;;;;;5100940;27;20205;-61
2024/01/19 06:09:15;;;;;;;60.63;31.13;;;-1.50;99.90;;;;;;5115379;27;20204;-62
2024/01/19 06:11:41;;;;;;;61.50;29.50;;;-1.50;99.90;;;;;;5116802;27;20181;-62
2024/01/19 06:14:07;;;;;;;57.57;29.93;;;-1.50;99.90;;;;;;5117333;27;20176;-62
2024/01/19 06:16:36;;;;;;;54.90;29.93;;;-1.40;99.90;;;;;;5116796;27;20185;-61
2024/01/19 06:19:02;;;;;;;59.93;29.73;;;-1.40;99.90;;;;;;5105232;28;20172;-62
2024/01/19 06:21:28;;;;;;;58.40;29.13;;;-1.40;99.90;;;;;;5103154;28;20477;-60
2024/01/19 06:23:54;;;;;;;55.03;29.37;;;-1.30;99.90;;;;;;5099429;28;20172;-62
2024/01/19 06:26:19;;;;;;;52.63;29.40;;;-1.40;99.90;;;;;;5104634;27;20185;-60
2024/01/19 06:28:45;;;;;;;60.87;31.17;;;-1.30;99.90;;;;;;5106651;28;20192;-60
2024/01/19 06:31:11;;;;;;;61.73;31.03;;;-1.30;99.90;;;;;;5111683;27;20198;-60
2024/01/19 06:33:37;;;;;;;59.23;30.17;;;-1.30;99.90;;;;;;5105279;27;20184;-60
2024/01/19 06:36:12;;;;;;;64.97;30.20;;;-1.30;99.90;;;;;;5111146;27;20172;-62
2024/01/19 06:38:38;;;;;;;61.30;31.27;;;-1.30;99.90;;;;;;5102311;28;20208;-60
2024/01/19 06:41:04;;;;;;;60.40;31.17;;;-1.30;99.90;;;;;;5108918;27;20213;-61
2024/01/19 06:43:30;;;;;;;52.87;28.37;;;-1.30;99.90;;;;;;5102677;28;20172;-61
2024/01/19 06:45:56;;;;;;;52.83;28.70;;;-1.30;99.90;;;;;;5107428;27;20188;-61
2024/01/19 06:48:21;;;;;;;54.00;30.33;;;-1.30;99.90;;;;;;5101495;27;20215;-61
2024/01/19 06:50:47;;;;;;;59.70;29.23;;;-1.30;99.90;;;;;;5101289;27;20215;-62
2024/01/19 06:53:13;;;;;;;56.57;28.80;;;-1.30;99.90;;;;;;5099413;28;20690;-62
2024/01/19 06:55:39;;;;;;;55.10;28.60;;;-1.30;99.90;;;;;;5095936;28;20185;-60
2024/01/19 06:58:04;;;;;;;57.43;28.73;;;-1.30;99.90;;;;;;5106619;28;20279;-60
2024/01/19 07:00:30;;;;;;;57.50;28.67;;;-1.30;99.90;;;;;;5102426;28;20240;-62
2024/01/19 07:02:56;;;;;;;55.67;29.13;;;-1.30;99.90;;;;;;5109091;28;20241;-62
2024/01/19 07:05:22;;;;;;;54.57;29.37;;;-1.30;99.90;;;;;;5102928;28;20176;-60
2024/01/19 07:07:47;;;;;;;61.43;29.93;;;-1.20;99.90;;;;;;5099978;28;20196;-62
2024/01/19 07:10:13;;;;;;;60.60;30.70;;;-1.20;99.90;;;;;;5104942;27;20538;-62
2024/01/19 07:12:40;;;;;;;55.87;28.80;;;-1.20;99.90;;;;;;5110859;27;20177;-61
2024/01/19 07:15:07;;;;;;;61.30;32.43;;;-1.20;99.90;;;;;;5105914;27;20242;-61
2024/01/19 07:17:32;;;;;;;51.60;29.50;;;-1.20;99.90;;;;;;5105642;28;20659;-62
2024/01/19 07:20:00;;;;;;;60.53;31.07;;;-1.30;99.90;;;;;;5107892;27;20288;-62
2024/01/19 07:22:29;;;;;;;59.87;30.70;;;-1.30;99.90;;;;;;5105973;28;20296;-62
2024/01/19 07:24:55;;;;;;;61.17;30.57;;;-1.30;99.90;;;;;;5103459;28;20208;-62
2024/01/19 07:27:20;;;;;;;60.57;31.23;;;-1.30;99.90;;;;;;5105918;28;20228;-62
2024/01/19 07:29:46;;;;;;;59.60;29.80;;;-1.30;99.90;;;;;;5103219;28;20283;-63
2024/01/19 07:32:12;;;;;;;61.53;31.60;;;-1.30;99.90;;;;;;5105987;28;20188;-61
2024/01/19 07:34:38;;;;;;;62.87;32.03;;;-1.30;99.90;;;;;;5098690;28;20181;-63
2024/01/19 07:37:04;;;;;;;60.40;32.17;;;-1.30;99.90;;;;;;5104636;28;20669;-63
2024/01/19 07:39:30;;;;;;;58.70;30.07;;;-1.30;99.90;;;;;;5101526;28;20181;-60
2024/01/19 07:41:56;;;;;;;61.80;31.73;;;-1.30;99.90;;;;;;5108888;28;20207;-62
2024/01/19 07:44:22;;;;;;;68.37;31.47;;;-1.20;99.90;;;;;;5106002;28;20567;-62
2024/01/19 07:46:48;;;;;;;57.63;28.33;;;-1.20;99.90;;;;;;5105824;28;20196;-62
2024/01/19 07:49:20;;;;;;;62.40;30.93;;;-1.20;99.90;;;;;;5098033;28;20568;-61
2024/01/19 07:51:47;;;;;;;66.47;31.53;;;-1.20;99.90;;;;;;5101249;28;20200;-62
2024/01/19 07:54:13;;;;;;;64.47;31.30;;;-1.10;99.90;;;;;;5100605;28;20189;-61
2024/01/19 07:56:38;;;;;;;64.17;31.53;;;-1.10;99.90;;;;;;5104023;28;20761;-62
2024/01/19 07:59:04;;;;;;;63.50;32.47;;;-1.00;99.90;;;;;;5123337;28;20529;-62
2024/01/19 08:01:31;;;;;;;67.13;32.90;;;-1.00;99.90;;;;;;5102956;27;20311;-62
2024/01/19 08:03:57;;;;;;;68.47;34.37;;;-1.10;99.90;;;;;;5091426;28;20193;-62
2024/01/19 08:06:23;;;;;;;72.67;33.43;;;-1.10;99.90;;;;;;5111838;28;20173;-62
2024/01/19 08:08:49;;;;;;;61.93;31.77;;;-1.10;99.90;;;;;;5110812;28;20276;-61
2024/01/19 08:11:15;;;;;;;65.17;32.13;;;-1.10;99.90;;;;;;5099564;28;20195;-62
2024/01/19 08:13:41;;;;;;;57.00;29.70;;;-1.10;99.90;;;;;;5109282;28;20215;-62
2024/01/19 08:16:07;;;;;;;70.13;33.50;;;-1.00;99.90;;;;;;5112887;28;20180;-62
2024/01/19 08:18:34;;;;;;;72.33;35.87;;;-1.00;99.90;;;;;;5109827;28;20200;-62
2024/01/19 08:21:03;;;;;;;72.23;34.57;;;-1.00;99.90;;;;;;5098028;28;20216;-59
2024/01/19 08:23:30;;;;;;;59.43;30.73;;;-0.90;99.90;;;;;;5094197;28;20177;-61
2024/01/19 08:25:56;;;;;;;66.37;33.60;;;-0.90;99.90;;;;;;5092959;28;20275;-61
2024/01/19 08:28:22;;;;;;;64.17;33.10;;;-0.80;99.90;;;;;;5095066;28;20197;-62
2024/01/19 08:30:48;;;;;;;63.23;33.87;;;-0.80;99.90;;;;;;5096470;28;20177;-62
2024/01/19 08:33:14;;;;;;;73.10;37.77;;;-0.80;99.90;;;;;;5097317;28;20229;-61
2024/01/19 08:35:40;;;;;;;74.60;37.23;;;-0.80;99.90;;;;;;5096152;28;20180;-61
2024/01/19 08:38:06;;;;;;;67.10;37.13;;;-0.70;99.90;;;;;;5097424;28;20203;-62
2024/01/19 08:40:32;;;;;;;67.23;36.53;;;-0.70;99.90;;;;;;5097319;28;20209;-62
2024/01/19 08:42:58;;;;;;;70.57;35.60;;;-0.70;99.90;;;;;;5097025;28;20215;-60
2024/01/19 08:45:24;;;;;;;63.83;35.03;;;-0.70;99.90;;;;;;5100829;28;20560;-62
2024/01/19 08:47:50;;;;;;;72.77;35.43;;;-0.70;99.90;;;;;;5105994;27;20200;-60
2024/01/19 08:50:16;;;;;;;63.20;33.53;;;-0.60;99.90;;;;;;5106183;27;20185;-61
2024/01/19 08:52:42;;;;;;;74.07;36.10;;;-0.60;99.90;;;;;;5102458;28;20192;-62
2024/01/19 08:55:08;;;;;;;68.77;36.07;;;-0.60;99.90;;;;;;5106669;28;20172;-60
2024/01/19 08:57:35;;;;;;;67.93;36.37;;;-0.60;99.90;;;;;;5104884;28;20219;-61
2024/01/19 09:00:01;;;;;;;64.47;35.73;;;-0.60;99.90;;;;;;5107329;27;20208;-60
2024/01/19 09:02:27;;;;;;;76.30;39.13;;;-0.50;99.90;;;;;;5114121;27;20236;-62
2024/01/19 09:04:53;;;;;;;71.37;33.80;;;-0.50;99.90;;;;;;5117815;27;20185;-61
2024/01/19 09:07:19;;;;;;;60.23;34.03;;;-0.50;99.90;;;;;;5123815;27;20680;-62
2024/01/19 09:09:44;;;;;;;63.27;35.63;;;-0.40;99.90;;;;;;5104001;28;20196;-62
2024/01/19 09:12:10;;;;;;;74.33;35.93;;;-0.30;99.90;;;;;;5113587;28;20192;-62
2024/01/19 09:14:36;;;;;;;65.90;36.93;;;-0.30;99.90;;;;;;5114275;28;20664;-62
2024/01/19 09:17:02;;;;;;;63.00;35.23;;;-0.30;99.90;;;;;;5100933;28;20205;-59
2024/01/19 09:19:28;;;;;;;66.93;36.57;;;-0.30;99.90;;;;;;5097066;28;20654;-62
2024/01/19 09:21:54;;;;;;;68.53;35.93;;;-0.30;99.90;;;;;;5104345;28;20638;-61
2024/01/19 09:24:20;;;;;;;65.13;35.00;;;-0.30;99.90;;;;;;5097989;28;20185;-62
2024/01/19 09:26:45;;;;;;;64.00;36.27;;;-0.30;99.90;;;;;;5113339;28;20676;-60
2024/01/19 09:29:11;;;;;;;56.70;35.87;;;-0.30;99.90;;;;;;5096258;28;20176;-60
2024/01/19 09:31:44;;;;;;;59.33;33.97;;;-0.20;99.90;;;;;;5105089;28;20189;-62
2024/01/19 09:34:11;;;;;;;65.53;35.60;;;-0.20;99.90;;;;;;5103511;28;20239;-60
2024/01/19 09:36:38;;;;;;;63.50;34.60;;;-0.20;99.90;;;;;;5103126;28;20189;-61
2024/01/19 09:39:04;;;;;;;62.30;36.17;;;-0.20;99.90;;;;;;5096109;28;20181;-62
2024/01/19 09:41:49;;;;;;;62.80;34.67;;;-0.20;99.90;;;;;;5110979;28;20196;-62
2024/01/19 09:44:18;;;;;;;56.90;33.80;;;-0.20;99.90;;;;;;5113379;28;20173;-61
2024/01/19 09:46:50;;;;;;;55.27;33.90;;;-0.20;99.90;;;;;;5115123;27;20566;-60
2024/01/19 09:49:34;;;;;;;64.43;36.67;;;-0.20;99.90;;;;;;5096140;28;20707;-60
2024/01/19 09:52:27;;;;;;;52.57;32.70;;;-0.20;99.90;;;;;;5100411;28;20306;-60
2024/01/19 09:54:54;;;;;;;64.13;34.77;;;-0.20;99.90;;;;;;5100117;28;20693;-60
2024/01/19 09:57:20;;;;;;;60.70;34.93;;;-0.10;99.90;;;;;;5111608;27;20703;-60
2024/01/19 09:59:46;;;;;;;52.60;32.07;;;-0.10;99.90;;;;;;5104947;27;20201;-62
2024/01/19 10:02:15;;;;;;;56.37;32.77;;;0.00;99.90;;;;;;5100492;28;20191;-62
2024/01/19 10:04:42;;;;;;;54.20;33.13;;;0.00;99.90;;;;;;5099330;28;20207;-60
2024/01/19 10:07:09;;;;;;;46.43;30.63;;;0.00;99.90;;;;;;5098900;28;20749;-62
2024/01/19 10:09:35;;;;;;;52.47;31.27;;;0.00;99.90;;;;;;5098022;28;20179;-60
2024/01/19 10:12:01;;;;;;;46.30;30.00;;;-0.10;99.90;;;;;;5099600;28;20181;-61
2024/01/19 10:14:26;;;;;;;55.20;32.27;;;-0.10;99.90;;;;;;5105093;28;20180;-61
2024/01/19 10:16:52;;;;;;;49.63;32.63;;;-0.10;99.90;;;;;;5104099;28;20597;-61
2024/01/19 10:19:21;;;;;;;48.20;31.67;;;0.00;99.90;;;;;;5105814;28;20219;-61
2024/01/19 10:21:49;;;;;;;52.70;31.90;;;-0.10;99.90;;;;;;5100942;28;20187;-60
2024/01/19 10:24:20;;;;;;;54.57;32.00;;;0.00;99.90;;;;;;5099401;28;20204;-62
2024/01/19 10:26:55;;;;;;;49.17;30.70;;;0.00;99.90;;;;;;5107644;28;20207;-61
2024/01/19 10:29:22;;;;;;;48.23;29.87;;;0.10;99.90;;;;;;5094206;28;20179;-60
2024/01/19 10:31:50;;;;;;;49.73;28.03;;;0.20;99.90;;;;;;5110706;27;20191;-60
2024/01/19 10:34:20;;;;;;;49.00;29.67;;;0.20;99.90;;;;;;5107439;27;20192;-61
2024/01/19 10:36:47;;;;;;;49.83;31.90;;;0.10;99.90;;;;;;5104502;27;20204;-62
2024/01/19 10:39:26;;;;;;;45.00;28.07;;;0.10;99.90;;;;;;5104954;27;20187;-62
2024/01/19 10:42:07;;;;;;;43.63;28.13;;;0.10;99.90;;;;;;5103605;27;20234;-62
2024/01/19 10:44:33;;;;;;;46.17;28.07;;;0.30;99.90;;;;;;5096871;28;20176;-62
2024/01/19 10:47:00;;;;;;;47.80;30.43;;;0.30;99.90;;;;;;5101785;27;20201;-62
2024/01/19 10:49:26;;;;;;;41.73;29.00;;;0.30;99.90;;;;;;5103930;28;20680;-62
2024/01/19 10:51:54;;;;;;;51.30;28.80;;;0.30;99.90;;;;;;5096110;28;20201;-63
2024/01/19 10:54:25;;;;;;;44.57;30.07;;;0.20;99.90;;;;;;5098486;28;20179;-62
2024/01/19 10:57:05;;;;;;;48.27;28.33;;;0.30;99.90;;;;;;5093213;28;20555;-62
2024/01/19 10:59:31;;;;;;;45.97;28.27;;;0.30;99.90;;;;;;5109863;28;20171;-62
2024/01/19 11:01:59;;;;;;;47.03;28.30;;;0.50;99.90;;;;;;5095691;28;20181;-62
2024/01/19 11:04:26;;;;;;;44.67;27.70;;;0.60;99.90;;;;;;5104418;28;20188;-61
2024/01/19 11:06:52;;;;;;;42.67;27.73;;;0.80;99.90;;;;;;5095346;28;20673;-62
2024/01/19 11:09:18;;;;;;;43.23;27.47;;;1.00;99.90;;;;;;5094171;28;20165;-62
2024/01/19 11:11:52;;;;;;;37.07;25.90;;;1.00;99.90;;;;;;5110322;28;20173;-62
2024/01/19 11:14:20;;;;;;;33.63;24.37;;;0.90;99.90;;;;;;5114083;28;20529;-63
2024/01/19 11:16:51;;;;;;;44.23;27.20;;;0.80;99.90;;;;;;5114104;28;20195;-62
2024/01/19 11:19:18;;;;;;;43.07;26.77;;;0.70;99.90;;;;;;5114256;28;20176;-62
2024/01/19 11:21:44;;;;;;;35.93;24.97;;;0.60;99.90;;;;;;5096730;28;20211;-62
2024/01/19 11:24:14;;;;;;;44.83;27.67;;;0.60;99.90;;;;;;5093190;28;20208;-61
2024/01/19 11:27:02;;;;;;;42.20;26.10;;;0.50;99.90;;;;;;5101165;28;20284;-63
2024/01/19 11:29:38;;;;;;;38.13;25.80;;;0.60;99.90;;;;;;5095757;28;20177;-63
2024/01/19 11:32:04;;;;;;;38.50;25.07;;;1.00;99.90;;;;;;5093126;28;20216;-63
2024/01/19 11:34:39;;;;;;;39.10;25.73;;;1.30;99.90;;;;;;5093862;28;20230;-63
2024/01/19 11:37:05;;;;;;;41.77;24.77;;;1.50;99.90;;;;;;5107399;28;20211;-62
2024/01/19 11:39:41;;;;;;;40.70;23.20;;;1.70;99.90;;;;;;5093496;28;20169;-62
2024/01/19 11:42:30;;;;;;;37.47;23.70;;;1.80;99.90;;;;;;5093684;28;20616;-63
2024/01/19 11:44:57;;;;;;;37.57;23.33;;;1.80;85.60;;;;;;5082731;28;20275;-62
2024/01/19 11:47:39;;;;;;;36.60;22.33;;;1.60;52.70;;;;;;5094703;28;20237;-62
2024/01/19 11:50:10;;;;;;;32.90;23.13;;;1.80;99.90;;;;;;5113904;28;20187;-63
2024/01/19 11:52:41;;;;;;;31.10;20.80;;;1.70;96.20;;;;;;5113746;28;20156;-62
2024/01/19 11:55:25;;;;;;;30.20;21.33;;;1.80;40.40;;;;;;5101518;28;20198;-62
2024/01/19 11:57:51;;;;;;;31.50;21.63;;;2.10;99.90;;;;;;5092646;28;20200;-62
2024/01/19 12:00:19;;;;;;;29.60;21.87;;;2.10;1.00;;;;;;5093105;28;20662;-62
2024/01/19 12:02:46;;;;;;;31.93;22.90;;;2.20;17.30;;;;;;5094547;28;20184;-62
2024/01/19 12:05:12;;;;;;;35.13;22.63;;;2.20;1.00;;;;;;5097292;28;20256;-62
2024/01/19 12:07:39;;;;;;;31.50;21.93;;;1.80;1.00;;;;;;5096981;28;20272;-62
2024/01/19 12:10:10;;;;;;;33.20;22.93;;;1.50;31.90;;;;;;5096927;28;20255;-63
2024/01/19 12:12:37;;;;;;;39.10;24.20;;;1.70;99.90;;;;;;5112321;28;20566;-63
2024/01/19 12:15:05;;;;;;;42.33;23.97;;;1.80;78.60;;;;;;5117556;28;20221;-62
2024/01/19 12:17:32;;;;;;;35.77;23.07;;;2.00;24.60;;;;;;5117761;28;20673;-62
2024/01/19 12:19:58;;;;;;;30.23;22.63;;;2.00;1.00;;;;;;5117756;28;20546;-63
2024/01/19 12:22:24;;;;;;;36.70;22.73;;;1.90;28.50;;;;;;5117672;27;20175;-62
2024/01/19 12:24:50;;;;;;;32.53;22.33;;;2.00;49.90;;;;;;5107854;28;20298;-62
2024/01/19 12:27:20;;;;;;;35.17;22.57;;;1.90;2.90;;;;;;5096316;28;20220;-63